Time;durP1;ratioP1;P1;durP2;ratioP2;P2;SDS_P1;SDS_P2;PMS_P1;PMS_P2;Temp;Humidity;BMP_temperature;BMP_pressure;BME280_temperature;BME280_humidity;BME280_pressure;Samples;Min_cycle;Max_cycle;Signal;HPM_P1;HPM_P2
2022/12/11 00:00:39;;;;;;;141.70;60.53;;;;;;;-0.14;100.00;101109.84;5028693;28;20021;-76
2022/12/11 00:03:05;;;;;;;132.32;58.53;;;;;;;-0.15;100.00;101108.13;4996173;28;20470;-76
2022/12/11 00:05:31;;;;;;;140.10;58.45;;;;;;;-0.15;100.00;101105.56;5030162;28;20256;-76
2022/12/11 00:07:57;;;;;;;140.73;58.92;;;;;;;-0.14;100.00;101107.25;5031254;28;20397;-76
2022/12/11 00:10:23;;;;;;;143.63;60.53;;;;;;;-0.12;100.00;101107.22;5029928;28;20088;-76
2022/12/11 00:12:48;;;;;;;131.90;58.85;;;;;;;-0.15;100.00;101107.28;5030757;28;20120;-76
2022/12/11 00:15:13;;;;;;;133.13;58.65;;;;;;;-0.14;100.00;101103.81;5030645;28;20425;-76
2022/12/11 00:17:39;;;;;;;132.90;57.30;;;;;;;-0.11;100.00;101095.97;5011355;28;20022;-76
2022/12/11 00:20:05;;;;;;;133.88;58.53;;;;;;;-0.12;100.00;101097.72;5013894;28;20061;-76
2022/12/11 00:22:30;;;;;;;137.30;58.38;;;;;;;-0.13;100.00;101096.00;5009782;28;20080;-76
2022/12/11 00:24:55;;;;;;;124.97;56.85;;;;;;;-0.12;100.00;101097.72;5010702;28;20026;-76
2022/12/11 00:27:21;;;;;;;128.48;57.47;;;;;;;-0.14;100.00;101093.47;5009629;28;20121;-76
2022/12/11 00:29:46;;;;;;;126.70;56.30;;;;;;;-0.14;100.00;101094.31;5030437;28;20041;-76
2022/12/11 00:32:11;;;;;;;127.70;56.47;;;;;;;-0.13;100.00;101101.19;5012118;28;20029;-76
2022/12/11 00:34:37;;;;;;;117.93;54.85;;;;;;;-0.10;100.00;101105.44;5030660;28;20088;-76
2022/12/11 00:37:05;;;;;;;121.50;56.47;;;;;;;-0.12;100.00;101096.88;5010583;28;20024;-77
2022/12/11 00:39:31;;;;;;;114.78;53.38;;;;;;;-0.09;100.00;101099.38;5029386;28;20037;-76
2022/12/11 00:41:57;;;;;;;122.05;54.50;;;;;;;-0.09;100.00;101101.97;5013300;28;20029;-76
2022/12/11 00:44:22;;;;;;;121.38;53.83;;;;;;;-0.09;100.00;101100.22;5012708;28;20578;-76
2022/12/11 00:46:48;;;;;;;118.55;53.78;;;;;;;-0.05;100.00;101099.25;5012803;28;20033;-76
2022/12/11 00:49:13;;;;;;;116.88;56.05;;;;;;;-0.06;100.00;101100.13;5013134;28;20037;-76
2022/12/11 00:51:38;;;;;;;114.88;55.60;;;;;;;-0.06;100.00;101101.88;5030705;28;20094;-76
2022/12/11 00:54:05;;;;;;;109.72;53.28;;;;;;;-0.02;100.00;101087.97;5017524;28;20076;-76
2022/12/11 00:56:30;;;;;;;103.63;51.30;;;;;;;-0.03;100.00;101092.28;5010937;28;20026;-76
2022/12/11 00:58:55;;;;;;;104.47;52.50;;;;;;;-0.03;100.00;101089.72;5024234;28;20087;-76
2022/12/11 01:01:22;;;;;;;110.38;53.25;;;;;;;-0.02;100.00;101093.13;5011774;28;20033;-76
2022/12/11 01:03:49;;;;;;;108.38;52.40;;;;;;;-0.04;100.00;101089.75;5013532;28;20053;-76
2022/12/11 01:06:17;;;;;;;109.03;53.95;;;;;;;-0.03;100.00;101096.63;5012811;28;20029;-76
2022/12/11 01:08:44;;;;;;;102.53;52.05;;;;;;;-0.05;100.00;101088.91;5028760;28;20025;-76
2022/12/11 01:11:11;;;;;;;99.68;51.55;;;;;;;0.00;100.00;101091.41;5028382;28;20087;-76
2022/12/11 01:13:38;;;;;;;96.75;50.58;;;;;;;0.01;100.00;101092.25;5029108;28;20132;-76
2022/12/11 01:16:12;;;;;;;95.50;50.53;;;;;;;-0.01;100.00;101092.25;5030222;28;20043;-76
2022/12/11 01:18:37;;;;;;;91.88;49.40;;;;;;;0.02;100.00;101091.34;5011763;28;20053;-76
2022/12/11 01:21:12;;;;;;;89.90;48.00;;;;;;;0.02;100.00;101099.97;5029420;28;20061;-76
2022/12/11 01:23:38;;;;;;;93.50;49.70;;;;;;;-0.01;100.00;101098.28;5029929;28;20472;-76
2022/12/11 01:26:09;;;;;;;99.25;50.25;;;;;;;-0.02;100.00;101099.16;5008510;28;20029;-76
2022/12/11 01:28:35;;;;;;;91.47;47.78;;;;;;;-0.01;100.00;101095.69;5011044;28;20116;-76
2022/12/11 01:31:00;;;;;;;94.65;50.00;;;;;;;-0.01;100.00;101102.59;5030028;28;20140;-76
2022/12/11 01:33:26;;;;;;;98.85;49.33;;;;;;;0.02;100.00;101099.97;5029838;28;20026;-76
2022/12/11 01:35:51;;;;;;;97.05;50.28;;;;;;;0.00;100.00;101099.16;5011748;28;20196;-76
2022/12/11 01:38:17;;;;;;;88.05;47.70;;;;;;;-0.01;100.00;101090.50;5029042;28;20116;-76
2022/12/11 01:40:51;;;;;;;92.63;47.92;;;;;;;0.04;100.00;101097.34;5008944;28;20034;-76
2022/12/11 01:43:16;;;;;;;92.32;48.03;;;;;;;0.05;100.00;101094.69;5020793;28;20037;-76
2022/12/11 01:45:46;;;;;;;85.97;47.00;;;;;;;0.04;100.00;101092.16;5017565;28;20397;-76
2022/12/11 01:48:15;;;;;;;83.97;46.30;;;;;;;-0.01;100.00;101093.09;5014312;28;20080;-76
2022/12/11 01:50:46;;;;;;;86.45;46.00;;;;;;;0.03;100.00;101088.72;5033772;28;20056;-76
2022/12/11 01:53:21;;;;;;;89.35;45.97;;;;;;;0.04;100.00;101086.97;5013011;28;20069;-76
2022/12/11 01:55:48;;;;;;;78.93;45.10;;;;;;;0.06;100.00;101090.38;5030240;28;20041;-76
2022/12/11 01:58:15;;;;;;;89.00;46.08;;;;;;;0.04;100.00;101077.50;5001753;28;20037;-76
2022/12/11 02:00:40;;;;;;;80.15;45.08;;;;;;;0.07;100.00;101077.41;5034143;28;20391;-76
2022/12/11 02:03:07;;;;;;;87.03;46.55;;;;;;;0.06;100.00;101077.44;5010981;28;20056;-76
2022/12/11 02:05:32;;;;;;;81.68;46.38;;;;;;;0.05;100.00;101078.34;5030215;28;20043;-76
2022/12/11 02:08:01;;;;;;;81.50;45.15;;;;;;;0.04;100.00;101082.66;5034013;28;20026;-76
2022/12/11 02:10:44;;;;;;;81.30;45.05;;;;;;;0.10;100.00;101081.66;5032620;28;20083;-76
2022/12/11 02:13:30;;;;;;;84.30;44.72;;;;;;;0.05;100.00;101079.19;5033171;28;20068;-76
2022/12/11 02:16:13;;;;;;;82.85;45.05;;;;;;;0.08;100.00;101075.66;5033237;28;20489;-76
2022/12/11 02:18:47;;;;;;;79.85;44.08;;;;;;;0.12;100.00;101079.88;5030860;28;20030;-76
2022/12/11 02:21:21;;;;;;;77.78;43.72;;;;;;;0.09;100.00;101080.78;5014181;28;20410;-76
2022/12/11 02:24:01;;;;;;;82.22;45.17;;;;;;;0.09;100.00;101082.53;5008704;28;20025;-76
2022/12/11 02:26:30;;;;;;;78.63;44.17;;;;;;;0.13;100.00;101081.56;5014687;28;20555;-76
2022/12/11 02:29:07;;;;;;;81.28;44.38;;;;;;;0.14;100.00;101078.09;5032828;28;20028;-76
2022/12/11 02:31:37;;;;;;;79.93;44.38;;;;;;;0.12;100.00;101069.50;5032359;28;20109;-76
2022/12/11 02:34:27;;;;;;;79.60;42.95;;;;;;;0.10;100.00;101066.13;5032790;28;20351;-76
2022/12/11 02:37:04;;;;;;;75.47;42.42;;;;;;;0.12;100.00;101067.78;5028207;28;20449;-76
2022/12/11 02:39:33;;;;;;;70.93;42.33;;;;;;;0.10;100.00;101072.16;5013861;28;20044;-76
2022/12/11 02:41:58;;;;;;;74.85;42.17;;;;;;;0.11;100.00;101079.00;5032956;28;20060;-76
2022/12/11 02:44:28;;;;;;;69.80;40.83;;;;;;;0.09;100.00;101078.22;5032641;28;20134;-76
2022/12/11 02:46:54;;;;;;;71.00;42.28;;;;;;;0.09;100.00;101077.38;5032575;28;20036;-76
2022/12/11 02:49:22;;;;;;;70.25;40.80;;;;;;;0.10;100.00;101076.47;5033099;28;20393;-76
2022/12/11 02:51:48;;;;;;;61.05;38.67;;;;;;;0.10;100.00;101074.72;5032700;28;20035;-76
2022/12/11 02:54:26;;;;;;;70.43;40.03;;;;;;;0.14;100.00;101080.66;5026635;28;20030;-76
2022/12/11 02:57:10;;;;;;;62.83;38.25;;;;;;;0.11;100.00;101078.16;5013510;28;20359;-77
2022/12/11 02:59:39;;;;;;;68.60;38.05;;;;;;;0.10;100.00;101081.66;5011620;28;20033;-77
2022/12/11 03:02:05;;;;;;;53.55;36.22;;;;;;;0.12;100.00;101074.69;5007221;28;20021;-77
2022/12/11 03:04:34;;;;;;;52.40;35.10;;;;;;;0.08;100.00;101075.66;5032359;28;20017;-77
2022/12/11 03:07:11;;;;;;;48.78;32.92;;;;;;;0.11;100.00;101075.59;5032141;28;20025;-77
2022/12/11 03:09:41;;;;;;;49.10;32.85;;;;;;;0.09;100.00;101069.59;5013811;28;20025;-77
2022/12/11 03:12:10;;;;;;;46.60;31.90;;;;;;;0.09;100.00;101064.44;5012139;28;20482;-76
2022/12/11 03:14:37;;;;;;;44.10;30.60;;;;;;;0.08;100.00;101063.56;5009921;28;20101;-76
2022/12/11 03:17:20;;;;;;;41.85;30.23;;;;;;;0.07;100.00;101058.44;5014450;28;20029;-75
2022/12/11 03:19:59;;;;;;;;;;;;;;;0.18;100.00;101061.56;5015107;28;20034;-76
2022/12/11 03:22:36;;;;;;;40.55;29.88;;;;;;;0.08;100.00;101062.72;5031506;28;19984;-76
2022/12/11 03:25:43;;;;;;;39.33;29.20;;;;;;;0.11;100.00;101067.81;5014376;28;20028;-76
2022/12/11 03:28:10;;;;;;;38.92;28.92;;;;;;;0.07;100.00;101061.88;5027767;28;20041;-76
2022/12/11 03:30:39;;;;;;;41.22;29.42;;;;;;;0.07;100.00;101061.88;5019490;28;20494;-76
2022/12/11 03:33:20;;;;;;;39.30;29.25;;;;;;;0.06;100.00;101055.00;5010090;28;20032;-76
2022/12/11 03:35:54;;;;;;;39.67;28.30;;;;;;;0.03;100.00;101049.09;5030931;28;20071;-76
2022/12/11 03:38:29;;;;;;;44.50;29.95;;;;;;;0.01;100.00;101046.53;5030831;28;20021;-76
2022/12/11 03:40:59;;;;;;;37.13;27.83;;;;;;;0.04;100.00;101050.78;4998147;28;20029;-76
2022/12/11 03:43:27;;;;;;;39.50;28.02;;;;;;;0.03;100.00;101049.09;5029735;28;20367;-76
2022/12/11 03:45:54;;;;;;;37.22;28.30;;;;;;;0.02;100.00;101047.38;5013397;28;20470;-76
2022/12/11 03:48:20;;;;;;;36.35;27.85;;;;;;;0.03;100.00;101043.91;5030141;28;20032;-77
2022/12/11 03:50:48;;;;;;;37.13;28.45;;;;;;;0.01;100.00;101043.09;5014110;28;20029;-76
2022/12/11 03:53:15;;;;;;;40.30;29.00;;;;;;;0.02;100.00;101042.22;5031287;28;20112;-76
2022/12/11 03:55:40;;;;;;;36.10;27.95;;;;;;;0.01;100.00;101030.16;5012887;28;20079;-76
2022/12/11 03:58:06;;;;;;;37.60;27.38;;;;;;;0.04;100.00;101027.50;5031539;28;20064;-76
2022/12/11 04:00:31;;;;;;;36.33;27.98;;;;;;;0.02;100.00;101027.53;5031555;28;20036;-76
2022/12/11 04:03:12;;;;;;;36.28;28.20;;;;;;;0.03;100.00;101028.38;5009581;28;20108;-76
2022/12/11 04:05:45;;;;;;;35.15;27.13;;;;;;;0.04;100.00;101024.91;5017193;28;20029;-76
2022/12/11 04:08:10;;;;;;;35.33;27.20;;;;;;;0.01;100.00;101022.41;5031362;28;20112;-76
2022/12/11 04:10:36;;;;;;;36.17;27.42;;;;;;;0.01;100.00;101027.59;5012183;28;20104;-76
2022/12/11 04:13:01;;;;;;;37.25;27.30;;;;;;;0.02;100.00;101030.13;5031698;28;20044;-76
2022/12/11 04:15:27;;;;;;;35.00;27.02;;;;;;;0.07;100.00;101032.59;5013081;28;20048;-76
2022/12/11 04:26:09;;;;;;;35.35;26.35;;;;;;;0.10;100.00;101024.72;5011501;28;20040;-76
2022/12/11 04:28:36;;;;;;;35.92;27.17;;;;;;;0.12;100.00;101030.72;5029043;28;20030;-76
2022/12/11 04:31:05;;;;;;;35.40;26.13;;;;;;;0.09;100.00;101028.22;5029712;28;20081;-76
2022/12/11 04:33:31;;;;;;;34.72;27.05;;;;;;;0.08;100.00;101022.19;5029986;28;20481;-76
2022/12/11 04:35:57;;;;;;;35.85;26.17;;;;;;;0.08;100.00;101019.59;5012392;28;20033;-76
2022/12/11 04:38:22;;;;;;;33.92;26.13;;;;;;;0.10;100.00;101015.25;5011608;28;20029;-76
2022/12/11 04:40:58;;;;;;;38.85;27.80;;;;;;;0.09;100.00;101018.72;5003436;28;20032;-76
2022/12/11 04:43:23;;;;;;;33.42;26.25;;;;;;;0.08;100.00;101021.34;5011484;28;20029;-76
2022/12/11 04:45:48;;;;;;;35.30;27.33;;;;;;;0.09;100.00;101017.88;5029439;28;20028;-76
2022/12/11 04:48:14;;;;;;;35.10;27.50;;;;;;;0.07;100.00;101014.47;5030424;28;20108;-76
2022/12/11 04:50:39;;;;;;;35.85;27.52;;;;;;;0.07;100.00;101019.66;5029649;28;20053;-76
2022/12/11 04:53:04;;;;;;;38.67;28.30;;;;;;;0.07;100.00;101025.66;5011602;28;20025;-76
2022/12/11 04:55:30;;;;;;;37.67;28.00;;;;;;;0.09;100.00;101012.69;5010993;28;20064;-77
2022/12/11 04:57:55;;;;;;;36.47;28.00;;;;;;;0.07;100.00;101007.56;5011793;28;20084;-76
2022/12/11 05:00:21;;;;;;;36.72;28.30;;;;;;;0.03;100.00;101002.53;5011926;28;20021;-77
2022/12/11 05:02:46;;;;;;;35.22;27.35;;;;;;;0.06;100.00;101008.47;5030632;28;20442;-76
2022/12/11 05:05:13;;;;;;;35.63;26.55;;;;;;;0.07;100.00;101004.13;5012235;28;20428;-75
2022/12/11 05:07:38;;;;;;;34.10;25.60;;;;;;;0.03;100.00;100995.63;5029451;28;20068;-76
2022/12/11 05:10:04;;;;;;;33.08;25.25;;;;;;;0.05;100.00;101005.91;5030341;28;20053;-76
2022/12/11 05:12:31;;;;;;;32.33;25.08;;;;;;;0.04;100.00;101015.41;5011438;28;20409;-77
2022/12/11 05:14:56;;;;;;;34.28;26.50;;;;;;;0.03;100.00;101007.69;5012066;28;20028;-76
2022/12/11 05:17:22;;;;;;;34.03;26.55;;;;;;;0.04;100.00;101006.81;5012301;28;20025;-76
2022/12/11 05:19:50;;;;;;;32.90;25.83;;;;;;;0.03;100.00;100997.34;5030118;28;20026;-76
2022/12/11 05:22:16;;;;;;;32.97;26.60;;;;;;;0.07;100.00;101004.13;5032236;28;20060;-76
2022/12/11 05:24:42;;;;;;;35.83;27.15;;;;;;;0.08;100.00;100998.91;5019148;28;20033;-76
2022/12/11 05:27:08;;;;;;;37.85;26.50;;;;;;;0.08;100.00;100992.91;5017767;28;20071;-77
2022/12/11 05:29:34;;;;;;;31.30;25.65;;;;;;;0.08;100.00;100985.13;5014644;28;20048;-76
2022/12/11 05:31:59;;;;;;;33.72;26.48;;;;;;;0.05;100.00;100990.41;5017659;28;20033;-76
2022/12/11 05:34:25;;;;;;;32.13;26.58;;;;;;;0.07;100.00;100992.03;5016415;28;20060;-76
2022/12/11 05:36:50;;;;;;;33.58;25.63;;;;;;;0.07;100.00;100989.47;5015819;28;20548;-75
2022/12/11 05:39:15;;;;;;;34.25;25.52;;;;;;;0.09;100.00;100986.81;5014954;28;20037;-76
2022/12/11 05:41:41;;;;;;;31.85;24.73;;;;;;;0.06;100.00;100992.09;5014400;28;20394;-76
2022/12/11 05:44:08;;;;;;;32.33;24.13;;;;;;;0.07;100.00;100998.97;5015467;28;20470;-76
2022/12/11 05:46:34;;;;;;;32.90;24.25;;;;;;;0.11;100.00;100997.97;5001223;28;20030;-76
2022/12/11 05:49:01;;;;;;;28.55;24.15;;;;;;;0.10;100.00;100999.72;5011877;28;20025;-76
2022/12/11 05:51:27;;;;;;;32.70;23.70;;;;;;;0.10;100.00;100996.28;5016111;28;20525;-75
2022/12/11 05:53:55;;;;;;;32.15;24.48;;;;;;;0.10;100.00;101004.03;5016539;28;20021;-76
2022/12/11 05:56:23;;;;;;;33.15;24.00;;;;;;;0.12;100.00;101007.44;5015319;28;20474;-76
2022/12/11 05:58:49;;;;;;;31.25;24.10;;;;;;;0.14;100.00;101000.47;5016524;28;20030;-76
2022/12/11 06:01:41;;;;;;;31.00;24.45;;;;;;;0.12;100.00;101002.25;5016807;28;20117;-76
2022/12/11 06:04:08;;;;;;;31.00;24.25;;;;;;;0.13;100.00;101002.22;5011706;28;20077;-76
2022/12/11 06:06:34;;;;;;;32.55;24.38;;;;;;;0.13;100.00;101004.81;5015160;28;20113;-76
2022/12/11 06:09:00;;;;;;;31.73;23.70;;;;;;;0.15;100.00;101005.59;5016502;28;20105;-76
2022/12/11 06:11:28;;;;;;;32.13;25.40;;;;;;;0.17;100.00;101001.22;5016580;28;20510;-76
2022/12/11 06:13:54;;;;;;;30.90;23.13;;;;;;;0.18;100.00;101007.25;5015750;28;20056;-76
2022/12/11 06:16:19;;;;;;;29.77;23.60;;;;;;;0.18;100.00;101002.06;5016247;28;20026;-76
2022/12/11 06:18:45;;;;;;;32.25;24.75;;;;;;;0.16;100.00;101009.03;5015681;28;20022;-76
2022/12/11 06:21:13;;;;;;;29.73;23.58;;;;;;;0.17;100.00;101000.38;5013977;28;20099;-76
2022/12/11 06:23:39;;;;;;;30.40;24.55;;;;;;;0.17;100.00;100997.78;5016188;28;20375;-76
2022/12/11 06:26:04;;;;;;;31.02;25.17;;;;;;;0.17;100.00;100995.22;5015247;28;20036;-76
2022/12/11 06:28:30;;;;;;;32.50;24.67;;;;;;;0.16;100.00;100999.53;5015380;28;20686;-76
2022/12/11 06:30:58;;;;;;;30.92;23.77;;;;;;;0.16;100.00;100993.50;5033297;28;20636;-76
2022/12/11 06:33:24;;;;;;;30.27;23.90;;;;;;;0.16;100.00;100993.50;5035053;28;20024;-76
2022/12/11 06:35:49;;;;;;;30.70;24.67;;;;;;;0.23;100.00;101000.19;5032201;28;20025;-76
2022/12/11 06:38:15;;;;;;;31.38;24.58;;;;;;;0.20;100.00;101002.88;5009789;28;20030;-76
2022/12/11 06:40:40;;;;;;;31.92;24.40;;;;;;;0.24;100.00;100999.31;5030899;28;20052;-76
2022/12/11 06:43:05;;;;;;;29.63;23.75;;;;;;;0.22;100.00;100998.50;5016011;28;20115;-77
2022/12/11 06:45:31;;;;;;;32.03;24.45;;;;;;;0.19;100.00;100991.69;5014598;28;20060;-77
2022/12/11 06:47:57;;;;;;;30.13;23.67;;;;;;;0.20;100.00;100993.38;5033025;28;20489;-77
2022/12/11 06:50:22;;;;;;;30.83;23.80;;;;;;;0.18;100.00;100994.31;5013954;28;20126;-77
2022/12/11 06:52:48;;;;;;;31.33;23.02;;;;;;;0.24;100.00;100987.22;5014294;28;20526;-76
2022/12/11 06:55:13;;;;;;;30.75;24.80;;;;;;;0.24;100.00;100986.38;5011207;28;20052;-77
2022/12/11 06:57:38;;;;;;;28.02;23.65;;;;;;;0.22;100.00;100988.16;5032209;28;20168;-76
2022/12/11 07:00:04;;;;;;;32.10;24.67;;;;;;;0.22;100.00;100988.16;5031575;28;20021;-77
2022/12/11 07:02:30;;;;;;;32.22;25.08;;;;;;;0.21;100.00;100986.47;5032151;28;20467;-77
2022/12/11 07:04:56;;;;;;;30.55;24.95;;;;;;;0.21;100.00;100996.81;5031868;28;20079;-77
2022/12/11 07:07:21;;;;;;;30.27;24.40;;;;;;;0.17;100.00;100992.63;5031910;28;20040;-77
2022/12/11 07:09:46;;;;;;;32.05;24.60;;;;;;;0.21;100.00;101007.16;5031410;28;20025;-77
2022/12/11 07:12:12;;;;;;;33.10;24.88;;;;;;;0.21;100.00;101002.00;5016257;28;20479;-77
2022/12/11 07:14:37;;;;;;;30.88;24.40;;;;;;;0.24;100.00;101001.91;4997913;28;20112;-77
2022/12/11 07:17:05;;;;;;;30.45;24.10;;;;;;;0.23;100.00;101000.19;5010767;28;20052;-77
2022/12/11 07:19:31;;;;;;;30.33;24.38;;;;;;;0.21;100.00;101007.16;5026636;28;20029;-77
2022/12/11 07:21:56;;;;;;;30.27;24.55;;;;;;;0.21;100.00;101008.00;5032925;28;20051;-76
2022/12/11 07:24:22;;;;;;;33.35;24.73;;;;;;;0.25;100.00;101013.94;5032175;28;20037;-76
2022/12/11 07:26:51;;;;;;;31.27;24.38;;;;;;;0.25;100.00;101013.94;5030397;28;20033;-76
2022/12/11 07:29:17;;;;;;;31.48;24.33;;;;;;;0.24;100.00;101018.28;5016026;28;20526;-76
2022/12/11 07:31:42;;;;;;;32.20;24.25;;;;;;;0.25;100.00;101024.28;5024044;28;20069;-76
2022/12/11 07:34:11;;;;;;;31.30;24.55;;;;;;;0.26;100.00;101023.41;5031557;28;20083;-76
2022/12/11 07:36:37;;;;;;;32.60;24.73;;;;;;;0.27;100.00;101017.31;5031509;28;20029;-76
2022/12/11 07:39:06;;;;;;;32.22;23.98;;;;;;;0.30;100.00;101022.41;5032043;28;20470;-76
2022/12/11 07:41:32;;;;;;;32.10;24.52;;;;;;;0.26;100.00;101015.63;5013708;28;20025;-76
2022/12/11 07:43:59;;;;;;;31.90;24.23;;;;;;;0.29;100.00;101020.72;5011111;28;20025;-76
2022/12/11 07:46:27;;;;;;;31.05;24.20;;;;;;;0.27;100.00;101012.16;4999965;28;20021;-76
2022/12/11 07:48:52;;;;;;;32.85;25.23;;;;;;;0.29;100.00;101011.22;5031634;28;20075;-76
2022/12/11 07:51:31;;;;;;;34.45;26.10;;;;;;;0.32;100.00;101016.31;5014111;28;20029;-76
2022/12/11 07:53:59;;;;;;;32.45;24.83;;;;;;;0.28;100.00;101011.25;5032232;28;20057;-77
2022/12/11 07:56:26;;;;;;;32.53;24.60;;;;;;;0.29;100.00;101023.31;5030116;28;20096;-76
2022/12/11 07:58:51;;;;;;;31.85;25.42;;;;;;;0.31;100.00;101016.34;5010252;28;20044;-76
2022/12/11 08:01:22;;;;;;;34.38;26.15;;;;;;;0.28;100.00;101019.03;5007989;28;20030;-76
2022/12/11 08:03:52;;;;;;;36.10;26.02;;;;;;;0.28;100.00;101011.25;5011207;28;20125;-76
2022/12/11 08:06:20;;;;;;;34.22;25.48;;;;;;;0.26;100.00;101011.31;5011702;28;20478;-76
2022/12/11 08:08:46;;;;;;;35.50;25.77;;;;;;;0.31;100.00;101021.53;5030092;28;20036;-76
2022/12/11 08:11:14;;;;;;;32.92;25.38;;;;;;;0.30;100.00;101015.50;5030835;28;20482;-76
2022/12/11 08:13:40;;;;;;;38.67;27.48;;;;;;;0.27;100.00;101017.31;5013210;28;20083;-76
2022/12/11 08:16:08;;;;;;;37.80;27.45;;;;;;;0.27;100.00;101014.75;5013089;28;20028;-76
2022/12/11 08:18:34;;;;;;;36.22;27.42;;;;;;;0.26;100.00;101023.41;5011172;28;20827;-76
2022/12/11 08:21:12;;;;;;;37.53;27.42;;;;;;;0.27;100.00;101015.59;5030106;28;20551;-75
2022/12/11 08:23:42;;;;;;;38.20;27.45;;;;;;;0.26;100.00;101013.91;5029624;28;20021;-76
2022/12/11 08:26:11;;;;;;;36.47;26.55;;;;;;;0.28;100.00;101019.03;5030433;28;20460;-76
2022/12/11 08:28:37;;;;;;;40.65;28.45;;;;;;;0.28;100.00;101019.88;5024431;28;20021;-77
2022/12/11 08:31:08;;;;;;;36.88;27.15;;;;;;;0.30;100.00;101022.41;5012024;28;20042;-76
2022/12/11 08:33:35;;;;;;;38.15;28.02;;;;;;;0.32;100.00;101023.22;5022099;28;20068;-76
2022/12/11 08:36:06;;;;;;;37.72;28.08;;;;;;;0.32;100.00;101024.06;5030073;28;20026;-76
2022/12/11 08:38:33;;;;;;;37.10;27.70;;;;;;;0.29;100.00;101018.97;5029552;28;20405;-76
2022/12/11 08:40:58;;;;;;;38.22;27.00;;;;;;;0.28;100.00;101019.88;5029249;28;20422;-76
2022/12/11 08:43:24;;;;;;;37.90;27.50;;;;;;;0.32;100.00;101021.47;5011055;28;20053;-76
2022/12/11 08:45:49;;;;;;;38.20;26.92;;;;;;;0.31;100.00;101014.59;5012071;28;20100;-76
2022/12/11 08:48:15;;;;;;;35.55;26.42;;;;;;;0.35;100.00;101015.38;5030277;28;20036;-76
2022/12/11 08:50:40;;;;;;;37.15;26.65;;;;;;;0.38;100.00;101019.59;5028459;28;20025;-76
2022/12/11 08:53:06;;;;;;;38.85;27.40;;;;;;;0.34;100.00;101018.84;5012209;28;20561;-76
2022/12/11 08:55:32;;;;;;;38.90;27.27;;;;;;;0.33;100.00;101006.81;5030284;28;20080;-77
2022/12/11 08:57:57;;;;;;;37.70;27.90;;;;;;;0.34;100.00;101003.31;5011440;28;20025;-76
2022/12/11 09:00:23;;;;;;;38.72;26.90;;;;;;;0.39;100.00;100995.41;5011925;28;20041;-77
2022/12/11 09:02:51;;;;;;;35.42;26.23;;;;;;;0.37;100.00;101007.56;5030841;28;20024;-77
2022/12/11 09:05:16;;;;;;;37.35;27.13;;;;;;;0.36;100.00;101017.06;5030038;28;20144;-77
2022/12/11 09:07:42;;;;;;;34.58;26.50;;;;;;;0.38;100.00;101010.09;5028619;28;20116;-77
2022/12/11 09:10:08;;;;;;;34.38;26.65;;;;;;;0.38;100.00;101010.09;5030036;28;20021;-78
2022/12/11 09:12:34;;;;;;;38.50;26.92;;;;;;;0.38;100.00;101007.50;5029147;28;20048;-76
2022/12/11 09:14:59;;;;;;;36.00;26.50;;;;;;;0.43;100.00;100997.03;5012635;28;20021;-76
2022/12/11 09:17:25;;;;;;;34.25;26.30;;;;;;;0.41;100.00;101002.28;5029560;28;20040;-78
2022/12/11 09:19:51;;;;;;;36.22;26.23;;;;;;;0.40;100.00;101002.28;4979289;28;20112;-78
2022/12/11 09:22:16;;;;;;;36.80;26.25;;;;;;;0.43;100.00;101000.47;5029403;28;20164;-76
2022/12/11 09:24:41;;;;;;;41.85;26.88;;;;;;;0.42;100.00;101010.88;5029589;28;20059;-78
2022/12/11 09:27:07;;;;;;;37.08;27.42;;;;;;;0.43;100.00;101007.41;5007853;28;20482;-78
2022/12/11 09:29:32;;;;;;;35.53;26.67;;;;;;;0.41;100.00;101010.03;5001042;28;20059;-78
2022/12/11 09:31:58;;;;;;;38.10;27.20;;;;;;;0.38;100.00;101012.69;5030159;28;20502;-77
2022/12/11 09:34:24;;;;;;;37.22;27.40;;;;;;;0.41;100.00;100999.69;5003616;28;20084;-78
2022/12/11 09:36:52;;;;;;;37.80;27.90;;;;;;;0.39;100.00;101000.59;5028704;28;20025;-79
2022/12/11 09:39:19;;;;;;;35.72;26.70;;;;;;;0.43;100.00;101004.81;5011473;28;20037;-77
2022/12/11 09:41:54;;;;;;;41.33;28.67;;;;;;;0.44;100.00;100993.56;5029016;28;20030;-77
2022/12/11 09:44:55;;;;;;;42.38;28.83;;;;;;;0.39;100.00;100998.84;5012047;28;20029;-77
2022/12/11 09:47:29;;;;;;;41.00;28.02;;;;;;;0.45;100.00;100995.25;5012403;28;20037;-76
2022/12/11 09:50:05;;;;;;;42.97;29.73;;;;;;;0.46;100.00;100996.94;5030132;28;20021;-77
2022/12/11 09:52:38;;;;;;;41.83;28.52;;;;;;;0.50;100.00;100994.22;5012521;28;20423;-76
2022/12/11 09:55:16;;;;;;;39.83;27.75;;;;;;;0.52;100.00;100986.41;5029801;28;20076;-78
2022/12/11 09:57:41;;;;;;;40.22;27.55;;;;;;;0.50;100.00;100991.63;5012260;28;20029;-76
2022/12/11 10:00:30;;;;;;;38.72;28.00;;;;;;;0.57;100.00;100994.88;5029602;28;20367;-78
2022/12/11 10:03:06;;;;;;;38.53;27.80;;;;;;;0.54;100.00;100990.66;5013856;28;20037;-77
2022/12/11 10:06:05;;;;;;;37.83;28.23;;;;;;;0.61;100.00;100993.88;5008818;28;20049;-77
2022/12/11 10:08:52;;;;;;;37.20;27.98;;;;;;;0.62;100.00;100998.19;5009225;28;20033;-77
2022/12/11 10:11:20;;;;;;;38.67;29.27;;;;;;;0.58;100.00;100989.66;5018345;28;20018;-77
2022/12/11 10:14:07;;;;;;;40.58;28.73;;;;;;;0.60;100.00;100995.63;5033949;28;20084;-77
2022/12/11 10:16:32;;;;;;;36.33;26.73;;;;;;;0.56;100.00;100983.69;5014619;28;20392;-77
2022/12/11 10:18:58;;;;;;;37.30;26.38;;;;;;;0.53;100.00;100988.09;5015311;28;20025;-76
2022/12/11 10:21:25;;;;;;;37.95;25.88;;;;;;;0.52;100.00;100987.25;5015340;28;20039;-77
2022/12/11 10:23:59;;;;;;;33.22;25.60;;;;;;;0.55;100.00;100992.34;5014625;28;20080;-77
2022/12/11 10:26:27;;;;;;;40.38;26.25;;;;;;;0.56;100.00;100991.44;5032028;28;20025;-77
2022/12/11 10:28:57;;;;;;;37.60;25.67;;;;;;;0.56;100.00;100988.84;5023642;28;20028;-77
2022/12/11 10:31:49;;;;;;;34.75;24.67;;;;;;;0.60;100.00;100993.03;5030516;28;20404;-77
2022/12/11 10:34:22;;;;;;;33.45;25.65;;;;;;;0.59;100.00;100987.91;5016202;28;20033;-77
2022/12/11 10:36:50;;;;;;;35.13;26.55;;;;;;;0.59;100.00;100981.00;5020152;28;20041;-77
2022/12/11 10:39:19;;;;;;;35.88;26.27;;;;;;;0.60;100.00;100981.84;5014611;28;20049;-77
2022/12/11 10:41:52;;;;;;;35.65;26.33;;;;;;;0.60;100.00;100977.50;5025298;28;20044;-76
2022/12/11 10:44:20;;;;;;;33.92;24.35;;;;;;;0.64;100.00;100975.66;5003266;28;20026;-76
2022/12/11 10:47:13;;;;;;;33.97;25.02;;;;;;;0.69;100.00;100975.53;5011839;28;20441;-76
2022/12/11 10:49:57;;;;;;;35.50;26.05;;;;;;;0.69;100.00;100978.13;5000816;28;20040;-76
2022/12/11 10:52:37;;;;;;;35.92;25.58;;;;;;;0.69;100.00;100976.38;5032184;28;20028;-76
2022/12/11 10:55:39;;;;;;;36.35;26.33;;;;;;;0.73;100.00;100969.34;5014993;28;20021;-76
2022/12/11 10:58:05;;;;;;;34.97;25.52;;;;;;;0.69;100.00;100967.75;5029341;28;20125;-78
2022/12/11 11:00:40;;;;;;;34.35;25.10;;;;;;;0.74;100.00;100963.28;5031517;28;20029;-77
2022/12/11 11:03:23;;;;;;;34.00;24.98;;;;;;;0.77;100.00;100970.94;5032540;28;20024;-77
2022/12/11 11:05:49;;;;;;;37.05;25.63;;;;;;;0.75;100.00;100975.31;5032103;28;20033;-77
2022/12/11 11:08:21;;;;;;;36.08;26.33;;;;;;;0.77;100.00;100966.63;5013940;28;20116;-77
2022/12/11 11:11:00;;;;;;;34.53;25.17;;;;;;;0.89;100.00;100960.22;5014764;28;20021;-77
2022/12/11 11:13:31;;;;;;;36.20;25.75;;;;;;;0.92;100.00;100967.88;5031540;28;20275;-77
2022/12/11 11:16:11;;;;;;;35.05;25.45;;;;;;;1.00;100.00;100963.31;5015243;28;20052;-77
2022/12/11 11:18:39;;;;;;;36.45;25.90;;;;;;;1.01;100.00;100964.16;5030759;28;20079;-77
2022/12/11 11:21:24;;;;;;;37.15;26.08;;;;;;;1.04;100.00;100954.53;5029194;28;20532;-76
2022/12/11 11:23:53;;;;;;;37.67;25.02;;;;;;;1.10;100.00;100954.31;5029369;28;20033;-77